createdAt,value
2022-11-18T00:00:29.522Z,0.50
2022-11-18T00:03:32.128Z,1.20
2022-11-18T00:06:34.710Z,0.90
2022-11-18T00:09:38.679Z,0.50
2022-11-18T00:13:13.582Z,0.47
2022-11-18T00:16:16.117Z,0.20
2022-11-18T00:19:19.475Z,0.40
2022-11-18T00:22:28.448Z,0.50
2022-11-18T00:25:34.860Z,0.50
2022-11-18T00:28:37.831Z,0.30
2022-11-18T00:31:40.807Z,0.60
2022-11-18T00:34:43.694Z,0.43
2022-11-18T00:37:46.341Z,0.40
2022-11-18T00:40:50.296Z,1.47
2022-11-18T00:43:52.025Z,0.40
2022-11-18T00:46:55.324Z,0.77
2022-11-18T00:49:58.009Z,0.52
2022-11-18T00:53:00.555Z,0.60
2022-11-18T00:56:04.873Z,0.50
2022-11-18T00:59:07.742Z,0.50
2022-11-18T01:02:10.451Z,0.40
2022-11-18T01:05:13.139Z,0.43
2022-11-18T01:08:16.122Z,0.50
2022-11-18T01:11:37.513Z,0.40
2022-11-18T01:14:40.194Z,0.37
2022-11-18T01:17:42.893Z,0.50
2022-11-18T01:20:46.143Z,0.47
2022-11-18T01:23:49.186Z,0.40
2022-11-18T01:26:53.207Z,0.35
2022-11-18T01:29:55.920Z,0.77
2022-11-18T01:32:59.152Z,1.17
2022-11-18T01:36:02.241Z,0.65
2022-11-18T01:39:05.231Z,1.05
2022-11-18T01:42:13.671Z,0.90
2022-11-18T01:45:25.708Z,0.57
2022-11-18T01:48:31.241Z,0.30
2022-11-18T01:51:36.702Z,0.50
2022-11-18T01:54:42.144Z,0.60
2022-11-18T01:57:48.975Z,0.40
2022-11-18T02:00:51.739Z,0.30
2022-11-18T02:03:55.049Z,0.32
2022-11-18T02:06:57.823Z,0.40
2022-11-18T02:10:03.843Z,0.85
2022-11-18T02:13:08.276Z,0.40
2022-11-18T02:16:16.587Z,0.30
2022-11-18T02:19:33.878Z,0.30
2022-11-18T02:22:47.293Z,0.40
2022-11-18T02:26:04.452Z,0.20
2022-11-18T02:29:10.405Z,0.43
2022-11-18T02:32:16.701Z,0.30
2022-11-18T02:35:21.969Z,0.40
2022-11-18T02:38:27.747Z,0.20
2022-11-18T02:41:33.280Z,0.43
2022-11-18T02:44:39.176Z,0.30
2022-11-18T02:47:43.659Z,0.30
2022-11-18T02:50:47.076Z,0.40
2022-11-18T02:53:50.435Z,0.40
2022-11-18T02:56:53.781Z,0.30
2022-11-18T02:59:57.932Z,0.32
2022-11-18T03:03:00.517Z,0.80
2022-11-18T03:06:10.606Z,0.30
2022-11-18T03:09:16.211Z,0.23
2022-11-18T03:12:25.320Z,0.23
2022-11-18T03:15:35.857Z,0.37
2022-11-18T03:18:43.400Z,0.37
2022-11-18T03:21:49.143Z,0.20
2022-11-18T03:24:57.069Z,0.40
2022-11-18T03:28:04.481Z,0.20
2022-11-18T03:31:11.626Z,0.40
2022-11-18T03:34:20.398Z,0.53
2022-11-18T03:37:24.363Z,0.30
2022-11-18T03:40:29.349Z,0.40
2022-11-18T03:43:35.883Z,0.30
2022-11-18T03:46:42.088Z,0.30
2022-11-18T03:49:47.715Z,0.40
2022-11-18T03:52:51.326Z,0.50
2022-11-18T03:55:57.975Z,0.93
2022-11-18T03:59:06.207Z,0.50
2022-11-18T04:02:13.526Z,0.83
2022-11-18T04:05:17.522Z,0.40
2022-11-18T04:08:23.817Z,0.50
2022-11-18T04:11:48.658Z,1.53
2022-11-18T04:14:55.366Z,1.17
2022-11-18T04:17:59.558Z,0.43
2022-11-18T04:21:02.203Z,0.70
2022-11-18T04:24:05.199Z,0.40
2022-11-18T04:27:08.573Z,0.75
2022-11-18T04:30:12.425Z,0.85
2022-11-18T04:33:16.473Z,0.60
2022-11-18T04:36:19.910Z,0.50
2022-11-18T04:39:22.693Z,0.60
2022-11-18T04:42:25.463Z,0.68
2022-11-18T04:45:28.152Z,0.47
2022-11-18T04:48:32.336Z,0.73
2022-11-18T04:51:34.977Z,0.30
2022-11-18T04:54:37.653Z,0.43
2022-11-18T04:57:40.268Z,0.40
2022-11-18T05:00:42.814Z,0.50
2022-11-18T05:03:50.539Z,0.33
2022-11-18T05:06:53.972Z,0.87
2022-11-18T05:09:56.600Z,0.65
2022-11-18T05:12:58.195Z,0.40
2022-11-18T05:16:02.345Z,0.80
2022-11-18T05:19:07.112Z,0.60
2022-11-18T05:22:09.741Z,0.40
2022-11-18T05:25:12.389Z,0.30
2022-11-18T05:28:15.244Z,0.67
2022-11-18T05:31:18.347Z,0.30
2022-11-18T05:34:22.563Z,0.40
2022-11-18T05:37:25.439Z,0.30
2022-11-18T05:40:29.076Z,0.20
2022-11-18T05:43:31.539Z,0.20
2022-11-18T05:46:34.978Z,0.30
2022-11-18T05:49:38.989Z,0.38
2022-11-18T05:52:41.714Z,0.30
2022-11-18T05:55:49.233Z,0.37
2022-11-18T05:58:52.077Z,0.30
2022-11-18T06:01:58.272Z,0.50
2022-11-18T06:08:33.885Z,0.33
2022-11-18T06:11:43.050Z,0.40
2022-11-18T06:14:46.966Z,0.33
2022-11-18T06:17:51.703Z,0.60
2022-11-18T06:20:57.915Z,0.50
2022-11-18T06:24:00.667Z,0.70
2022-11-18T06:27:04.039Z,0.73
2022-11-18T06:30:08.273Z,0.50
2022-11-18T06:33:10.876Z,0.80
2022-11-18T06:36:14.807Z,0.60
2022-11-18T06:39:17.623Z,0.70
2022-11-18T06:42:34.342Z,0.60
2022-11-18T06:45:37.048Z,0.53
2022-11-18T06:48:39.753Z,0.77
2022-11-18T06:51:43.842Z,0.40
2022-11-18T06:54:46.633Z,1.10
2022-11-18T06:57:49.266Z,0.63
2022-11-18T07:00:51.885Z,0.47
2022-11-18T07:03:55.034Z,0.57
2022-11-18T07:06:59.037Z,0.57
2022-11-18T07:10:01.814Z,0.67
2022-11-18T07:13:04.748Z,0.55
2022-11-18T07:16:08.842Z,0.50
2022-11-18T07:19:12.994Z,0.63
2022-11-18T07:22:17.292Z,0.80
2022-11-18T07:25:20.395Z,0.50
2022-11-18T07:28:23.256Z,0.47
2022-11-18T07:31:25.836Z,0.45
2022-11-18T07:34:28.380Z,0.43
2022-11-18T07:37:32.361Z,0.50
2022-11-18T07:40:35.157Z,0.40
2022-11-18T07:43:38.390Z,0.45
2022-11-18T07:46:41.113Z,0.73
2022-11-18T07:49:43.840Z,0.53
2022-11-18T07:52:47.744Z,0.60
2022-11-18T07:55:50.352Z,0.40
2022-11-18T07:58:53.760Z,0.47
2022-11-18T08:01:57.555Z,0.80
2022-11-18T08:05:00.395Z,1.00
2022-11-18T08:08:04.746Z,1.10
2022-11-18T08:11:08.654Z,1.00
2022-11-18T08:14:11.260Z,0.30
2022-11-18T08:17:13.926Z,0.70
2022-11-18T08:20:17.185Z,0.57
2022-11-18T08:23:21.219Z,0.38
2022-11-18T08:26:24.925Z,0.50
2022-11-18T08:32:31.986Z,0.50
2022-11-18T08:35:35.475Z,0.68
2022-11-18T08:38:39.441Z,0.40
2022-11-18T08:41:43.737Z,0.40
2022-11-18T08:44:46.902Z,0.40
2022-11-18T08:47:49.487Z,0.40
2022-11-18T08:50:52.776Z,0.40
2022-11-18T08:53:57.061Z,0.40
2022-11-18T08:56:59.649Z,0.40
2022-11-18T09:00:02.236Z,0.63
2022-11-18T09:03:04.845Z,0.60
2022-11-18T09:06:09.140Z,0.50
2022-11-18T09:09:13.124Z,0.63
2022-11-18T09:12:17.524Z,1.10
2022-11-18T09:15:20.622Z,0.57
2022-11-18T09:18:23.534Z,0.70
2022-11-18T09:21:26.630Z,0.40
2022-11-18T09:24:30.726Z,0.47
2022-11-18T09:27:33.391Z,0.37
2022-11-18T09:30:36.003Z,0.30
2022-11-18T09:33:38.953Z,0.40
2022-11-18T09:36:41.653Z,0.30
2022-11-18T09:39:45.604Z,0.67
2022-11-18T09:42:57.716Z,0.50
2022-11-18T09:46:05.396Z,0.50
2022-11-18T09:49:14.861Z,0.67
2022-11-18T09:52:21.060Z,0.50
2022-11-18T09:55:25.089Z,0.53
2022-11-18T09:58:32.983Z,0.40
2022-11-18T10:01:37.750Z,0.70
2022-11-18T10:04:40.713Z,0.33
2022-11-18T10:07:48.155Z,0.38
2022-11-18T10:10:57.684Z,0.50
2022-11-18T10:14:07.975Z,0.70
2022-11-18T10:17:23.215Z,0.60
2022-11-18T10:20:33.359Z,0.57
2022-11-18T10:23:43.630Z,0.50
2022-11-18T10:26:47.824Z,0.50
2022-11-18T10:29:54.133Z,0.43
2022-11-18T10:32:59.020Z,0.97
2022-11-18T10:36:26.275Z,1.10
2022-11-18T10:39:29.050Z,0.70
2022-11-18T10:42:37.071Z,0.73
2022-11-18T10:45:39.722Z,1.00
2022-11-18T10:48:42.349Z,0.70
2022-11-18T10:51:46.412Z,0.97
2022-11-18T10:55:07.575Z,0.93
2022-11-18T10:58:16.163Z,1.00
2022-11-18T11:01:21.848Z,1.40
2022-11-18T11:04:27.231Z,1.00
2022-11-18T11:07:32.766Z,1.13
2022-11-18T11:10:35.651Z,1.10
2022-11-18T11:13:41.962Z,0.70
2022-11-18T11:16:49.850Z,0.80
2022-11-18T11:19:54.215Z,0.60
2022-11-18T11:22:57.196Z,0.77
2022-11-18T11:29:38.444Z,0.90
2022-11-18T11:33:06.173Z,0.60
2022-11-18T11:36:25.889Z,0.67
2022-11-18T11:39:47.998Z,0.93
2022-11-18T11:42:59.626Z,0.67
2022-11-18T11:46:24.276Z,0.80
2022-11-18T11:49:45.348Z,0.70
2022-11-18T11:52:58.742Z,0.70
2022-11-18T11:56:07.308Z,0.60
2022-11-18T11:59:19.784Z,1.10
2022-11-18T12:02:48.685Z,0.60
2022-11-18T12:05:52.404Z,0.70
2022-11-18T12:12:28.927Z,0.60
2022-11-18T12:15:42.332Z,1.10
2022-11-18T12:18:49.938Z,0.57
2022-11-18T12:22:03.928Z,0.70
2022-11-18T12:28:25.175Z,0.70
2022-11-18T12:31:35.361Z,0.60
2022-11-18T12:34:42.442Z,0.70
2022-11-18T12:37:48.544Z,0.67
2022-11-18T12:40:53.157Z,0.63
2022-11-18T12:44:09.995Z,0.80
2022-11-18T12:47:13.500Z,0.77
2022-11-18T12:50:18.186Z,0.57
2022-11-18T12:53:34.352Z,0.83
2022-11-18T12:56:38.252Z,0.80
2022-11-18T12:59:40.961Z,0.70
2022-11-18T13:02:52.143Z,0.50
2022-11-18T13:06:14.411Z,0.77
2022-11-18T13:09:18.712Z,0.83
2022-11-18T13:12:21.517Z,0.87
2022-11-18T13:15:42.129Z,0.87
2022-11-18T13:18:51.903Z,0.90
2022-11-18T13:22:14.497Z,1.00
2022-11-18T13:25:25.108Z,1.23
2022-11-18T13:28:34.129Z,0.43
2022-11-18T13:31:40.248Z,0.63
2022-11-18T13:34:47.736Z,0.80
2022-11-18T13:37:54.672Z,0.73
2022-11-18T13:41:08.164Z,0.87
2022-11-18T13:44:13.138Z,0.82
2022-11-18T13:47:24.309Z,0.87
2022-11-18T13:50:31.740Z,1.00
2022-11-18T13:53:37.212Z,1.10
2022-11-18T13:56:40.304Z,0.60
2022-11-18T13:59:43.295Z,0.80
2022-11-18T14:02:54.358Z,0.60
2022-11-18T14:05:58.427Z,0.80
2022-11-18T14:09:18.004Z,0.60
2022-11-18T14:12:24.519Z,1.10
2022-11-18T14:15:40.491Z,0.70
2022-11-18T14:18:48.459Z,1.23
2022-11-18T14:21:51.137Z,1.33
2022-11-18T14:24:59.149Z,0.80
2022-11-18T14:28:13.245Z,0.83
2022-11-18T14:31:24.636Z,1.00
2022-11-18T14:34:28.040Z,0.63
2022-11-18T14:37:31.358Z,0.90
2022-11-18T14:40:35.308Z,0.80
2022-11-18T14:43:38.378Z,0.80
2022-11-18T14:46:42.831Z,0.82
2022-11-18T14:49:45.508Z,0.83
2022-11-18T14:52:48.108Z,0.80
2022-11-18T14:55:53.282Z,0.70
2022-11-18T14:58:55.982Z,0.93
2022-11-18T15:01:59.421Z,0.80
2022-11-18T15:05:02.151Z,1.10
2022-11-18T15:08:05.140Z,0.97
2022-11-18T15:11:09.284Z,1.00
2022-11-18T15:14:11.938Z,1.00
2022-11-18T15:17:14.841Z,0.80
2022-11-18T15:20:20.375Z,1.15
2022-11-18T15:23:25.753Z,1.07
2022-11-18T15:26:37.253Z,1.03
2022-11-18T15:29:39.853Z,1.27
2022-11-18T15:32:43.169Z,1.00
2022-11-18T15:35:45.810Z,1.70
2022-11-18T15:38:49.597Z,2.10
2022-11-18T15:41:53.887Z,1.30
2022-11-18T15:44:56.610Z,1.50
2022-11-18T15:47:59.327Z,1.30
2022-11-18T15:51:01.920Z,1.13
2022-11-18T15:54:04.773Z,1.70
2022-11-18T15:57:08.738Z,1.10
2022-11-18T16:00:12.477Z,1.80
2022-11-18T16:03:15.789Z,1.40
2022-11-18T16:06:18.670Z,1.80
2022-11-18T16:09:21.804Z,1.63
2022-11-18T16:12:43.990Z,1.40
2022-11-18T16:15:48.519Z,1.47
2022-11-18T16:18:54.948Z,2.17
2022-11-18T16:21:57.895Z,2.43
2022-11-18T16:25:00.620Z,2.65
2022-11-18T16:28:08.137Z,1.90
2022-11-18T16:31:28.531Z,1.60
2022-11-18T16:34:31.240Z,1.63
2022-11-18T16:37:33.927Z,1.20
2022-11-18T16:40:36.637Z,1.57
2022-11-18T16:43:40.747Z,1.50
2022-11-18T16:46:47.323Z,1.70
2022-11-18T16:49:50.100Z,1.30
2022-11-18T16:52:52.678Z,1.55
2022-11-18T16:55:56.828Z,2.07
2022-11-18T16:59:02.888Z,2.00
2022-11-18T17:02:06.528Z,1.47
2022-11-18T17:05:09.966Z,2.37
2022-11-18T17:08:12.749Z,1.90
2022-11-18T17:11:15.551Z,1.50
2022-11-18T17:14:21.783Z,1.83
2022-11-18T17:17:24.675Z,1.63
2022-11-18T17:20:27.265Z,1.73
2022-11-18T17:23:29.957Z,1.70
2022-11-18T17:26:32.522Z,1.50
2022-11-18T17:29:36.657Z,1.33
2022-11-18T17:32:39.347Z,2.70
2022-11-18T17:35:41.930Z,2.73
2022-11-18T17:38:46.828Z,2.30
2022-11-18T17:42:07.743Z,2.97
2022-11-18T17:45:12.697Z,1.83
2022-11-18T17:48:15.261Z,1.70
2022-11-18T17:51:17.863Z,1.63
2022-11-18T17:54:21.129Z,2.33
2022-11-18T17:57:26.638Z,2.17
2022-11-18T18:00:31.948Z,2.20
2022-11-18T18:03:34.716Z,3.20
2022-11-18T18:06:37.409Z,2.83
2022-11-18T18:09:40.252Z,3.37
2022-11-18T18:13:00.722Z,2.38
2022-11-18T18:16:04.931Z,2.13
2022-11-18T18:19:08.352Z,2.53
2022-11-18T18:22:11.042Z,2.67
2022-11-18T18:25:14.200Z,2.53
2022-11-18T18:28:16.871Z,1.90
2022-11-18T18:31:20.909Z,2.10
2022-11-18T18:34:23.522Z,1.67
2022-11-18T18:37:26.449Z,2.10
2022-11-18T18:40:29.104Z,2.90
2022-11-18T18:43:31.873Z,2.57
2022-11-18T18:46:37.803Z,2.63
2022-11-18T18:49:40.451Z,2.00
2022-11-18T18:52:43.214Z,1.83
2022-11-18T18:55:45.905Z,2.25
2022-11-18T18:58:48.803Z,1.70
2022-11-18T19:01:52.856Z,2.13
2022-11-18T19:04:55.646Z,1.67
2022-11-18T19:07:58.388Z,1.80
2022-11-18T19:11:05.874Z,2.00
2022-11-18T19:14:12.799Z,1.70
2022-11-18T19:17:17.464Z,1.73
2022-11-18T19:20:37.375Z,2.03
2022-11-18T19:23:41.174Z,1.20
2022-11-18T19:26:43.936Z,1.60
2022-11-18T19:29:46.592Z,1.75
2022-11-18T19:32:51.114Z,2.23
2022-11-18T19:35:56.620Z,1.93
2022-11-18T19:39:00.476Z,1.60
2022-11-18T19:42:03.152Z,1.50
2022-11-18T19:45:07.428Z,1.47
2022-11-18T19:48:11.613Z,1.87
2022-11-18T19:51:15.684Z,2.20
2022-11-18T19:54:18.758Z,1.50
2022-11-18T19:57:22.094Z,1.50
2022-11-18T20:00:24.823Z,1.42
2022-11-18T20:03:30.692Z,1.77
2022-11-18T20:06:35.466Z,1.80
2022-11-18T20:09:38.180Z,1.63
2022-11-18T20:12:40.896Z,1.70
2022-11-18T20:15:44.145Z,2.25
2022-11-18T20:18:49.280Z,2.10
2022-11-18T20:21:52.503Z,2.37
2022-11-18T20:24:55.183Z,2.20
2022-11-18T20:27:58.484Z,1.70
2022-11-18T20:31:02.265Z,2.03
2022-11-18T20:37:09.667Z,1.10
2022-11-18T20:40:13.106Z,1.40
2022-11-18T20:43:15.726Z,1.90
2022-11-18T20:46:20.927Z,1.13
2022-11-18T20:49:25.213Z,1.33
2022-11-18T20:52:27.795Z,1.20
2022-11-18T20:55:30.485Z,0.87
2022-11-18T20:58:33.925Z,1.00
2022-11-18T21:01:36.645Z,1.35
2022-11-18T21:04:40.711Z,1.23
2022-11-18T21:07:43.270Z,1.07
2022-11-18T21:10:45.909Z,1.07
2022-11-18T21:14:05.979Z,0.93
2022-11-18T21:17:08.720Z,1.20
2022-11-18T21:20:26.903Z,1.10
2022-11-18T21:23:29.492Z,1.10
2022-11-18T21:26:33.679Z,1.20
2022-11-18T21:29:36.290Z,1.33
2022-11-18T21:32:38.990Z,1.00
2022-11-18T21:35:43.124Z,1.70
2022-11-18T21:38:45.832Z,1.37
2022-11-18T21:41:53.852Z,1.23
2022-11-18T21:44:58.863Z,1.07
2022-11-18T21:48:01.525Z,1.08
2022-11-18T21:51:07.253Z,1.20
2022-11-18T21:54:11.690Z,1.20
2022-11-18T21:57:14.307Z,1.20
2022-11-18T22:00:18.012Z,1.20
2022-11-18T22:06:25.280Z,1.10
2022-11-18T22:09:32.910Z,1.37
2022-11-18T22:12:38.651Z,1.10
2022-11-18T22:15:41.297Z,1.07
2022-11-18T22:18:45.017Z,1.00
2022-11-18T22:24:51.433Z,0.95
2022-11-18T22:27:55.285Z,1.20
2022-11-18T22:31:02.740Z,1.70
2022-11-18T22:34:05.428Z,1.40
2022-11-18T22:37:09.473Z,1.60
2022-11-18T22:40:13.380Z,1.23
2022-11-18T22:43:15.974Z,1.37
2022-11-18T22:46:20.099Z,1.30
2022-11-18T22:49:22.738Z,1.50
2022-11-18T22:52:26.660Z,1.17
2022-11-18T22:55:29.227Z,1.13
2022-11-18T22:58:31.911Z,1.00
2022-11-18T23:01:34.633Z,1.37
2022-11-18T23:04:37.258Z,1.43
2022-11-18T23:07:41.274Z,1.50
2022-11-18T23:10:44.004Z,1.53
2022-11-18T23:14:03.760Z,1.43
2022-11-18T23:17:06.661Z,1.50
2022-11-18T23:20:10.584Z,1.40
2022-11-18T23:23:14.555Z,1.30
2022-11-18T23:26:17.625Z,1.20
2022-11-18T23:29:20.513Z,1.13
2022-11-18T23:32:23.461Z,2.08
2022-11-18T23:35:26.140Z,2.43
2022-11-18T23:38:30.597Z,2.33
2022-11-18T23:41:33.211Z,2.00
2022-11-18T23:44:52.411Z,2.50
2022-11-18T23:47:55.028Z,1.27
2022-11-18T23:50:59.248Z,1.67
2022-11-18T23:54:03.215Z,1.70
2022-11-18T23:57:05.886Z,1.80
